sensor_id;sensor_type;location;lat;lon;timestamp;temperature;humidity
32187;DHT22;18686;53.084;8.872;2024-02-16T00:00:14;10.50;99.90
32187;DHT22;18686;53.084;8.872;2024-02-16T00:02:44;10.40;99.90
32187;DHT22;18686;53.084;8.872;2024-02-16T00:05:13;10.40;99.90
32187;DHT22;18686;53.084;8.872;2024-02-16T00:07:40;10.40;99.90
32187;DHT22;18686;53.084;8.872;2024-02-16T00:10:11;10.40;99.90
32187;DHT22;18686;53.084;8.872;2024-02-16T00:12:40;10.40;99.90
32187;DHT22;18686;53.084;8.872;2024-02-16T00:15:09;10.40;99.90
32187;DHT22;18686;53.084;8.872;2024-02-16T00:17:38;10.40;99.90
32187;DHT22;18686;53.084;8.872;2024-02-16T00:20:08;10.30;99.90
32187;DHT22;18686;53.084;8.872;2024-02-16T00:22:37;10.30;99.90
32187;DHT22;18686;53.084;8.872;2024-02-16T00:25:06;10.30;99.90
32187;DHT22;18686;53.084;8.872;2024-02-16T00:27:36;10.30;99.90
32187;DHT22;18686;53.084;8.872;2024-02-16T00:30:07;10.30;99.90
32187;DHT22;18686;53.084;8.872;2024-02-16T00:32:37;10.30;99.90
32187;DHT22;18686;53.084;8.872;2024-02-16T00:35:06;10.20;99.90
32187;DHT22;18686;53.084;8.872;2024-02-16T00:37:34;10.30;99.90
32187;DHT22;18686;53.084;8.872;2024-02-16T00:40:03;10.30;99.90
32187;DHT22;18686;53.084;8.872;2024-02-16T00:42:33;10.20;99.90
32187;DHT22;18686;53.084;8.872;2024-02-16T00:45:03;10.20;99.90
32187;DHT22;18686;53.084;8.872;2024-02-16T00:47:32;10.20;99.90
32187;DHT22;18686;53.084;8.872;2024-02-16T00:50:00;10.20;99.90
32187;DHT22;18686;53.084;8.872;2024-02-16T00:52:29;10.30;99.90
32187;DHT22;18686;53.084;8.872;2024-02-16T00:54:57;10.20;99.90
32187;DHT22;18686;53.084;8.872;2024-02-16T00:57:26;10.30;99.90
32187;DHT22;18686;53.084;8.872;2024-02-16T00:59:54;10.30;99.90
32187;DHT22;18686;53.084;8.872;2024-02-16T01:02:24;10.30;99.90
32187;DHT22;18686;53.084;8.872;2024-02-16T01:04:56;10.30;99.90
32187;DHT22;18686;53.084;8.872;2024-02-16T01:07:30;10.30;99.90
32187;DHT22;18686;53.084;8.872;2024-02-16T01:09:59;10.30;99.90
32187;DHT22;18686;53.084;8.872;2024-02-16T01:12:30;10.40;99.90
32187;DHT22;18686;53.084;8.872;2024-02-16T01:14:58;10.30;99.90
32187;DHT22;18686;53.084;8.872;2024-02-16T01:17:29;10.30;99.90
32187;DHT22;18686;53.084;8.872;2024-02-16T01:19:59;10.30;99.90
32187;DHT22;18686;53.084;8.872;2024-02-16T01:22:28;10.30;99.90
32187;DHT22;18686;53.084;8.872;2024-02-16T01:24:57;10.40;99.90
32187;DHT22;18686;53.084;8.872;2024-02-16T01:27:25;10.40;99.90
32187;DHT22;18686;53.084;8.872;2024-02-16T01:29:55;10.40;99.90
32187;DHT22;18686;53.084;8.872;2024-02-16T01:32:24;10.40;99.90
32187;DHT22;18686;53.084;8.872;2024-02-16T01:34:54;10.40;99.90
32187;DHT22;18686;53.084;8.872;2024-02-16T01:37:22;10.40;99.90
32187;DHT22;18686;53.084;8.872;2024-02-16T01:39:50;10.40;99.90
32187;DHT22;18686;53.084;8.872;2024-02-16T01:42:19;10.40;99.90
32187;DHT22;18686;53.084;8.872;2024-02-16T01:44:48;10.40;99.90
32187;DHT22;18686;53.084;8.872;2024-02-16T01:47:18;10.30;99.90
32187;DHT22;18686;53.084;8.872;2024-02-16T01:49:47;10.30;99.90
32187;DHT22;18686;53.084;8.872;2024-02-16T01:52:18;10.30;99.90
32187;DHT22;18686;53.084;8.872;2024-02-16T01:54:46;10.30;99.90
32187;DHT22;18686;53.084;8.872;2024-02-16T01:57:15;10.30;99.90
32187;DHT22;18686;53.084;8.872;2024-02-16T01:59:43;10.20;99.90
32187;DHT22;18686;53.084;8.872;2024-02-16T02:02:12;10.30;99.90
32187;DHT22;18686;53.084;8.872;2024-02-16T02:04:41;10.30;99.90
32187;DHT22;18686;53.084;8.872;2024-02-16T02:07:13;10.30;99.90
32187;DHT22;18686;53.084;8.872;2024-02-16T02:09:43;10.20;99.90
32187;DHT22;18686;53.084;8.872;2024-02-16T02:12:11;10.20;99.90
32187;DHT22;18686;53.084;8.872;2024-02-16T02:14:40;10.20;99.90
32187;DHT22;18686;53.084;8.872;2024-02-16T02:17:09;10.20;99.90
32187;DHT22;18686;53.084;8.872;2024-02-16T02:19:37;10.20;99.90
32187;DHT22;18686;53.084;8.872;2024-02-16T02:22:12;10.20;99.90
32187;DHT22;18686;53.084;8.872;2024-02-16T02:24:40;10.20;99.90
32187;DHT22;18686;53.084;8.872;2024-02-16T02:27:09;10.20;99.90
32187;DHT22;18686;53.084;8.872;2024-02-16T02:29:37;10.20;99.90
32187;DHT22;18686;53.084;8.872;2024-02-16T02:32:06;10.20;99.90
32187;DHT22;18686;53.084;8.872;2024-02-16T02:34:34;10.20;99.90
32187;DHT22;18686;53.084;8.872;2024-02-16T02:37:03;10.20;99.90
32187;DHT22;18686;53.084;8.872;2024-02-16T02:39:34;10.20;99.90
32187;DHT22;18686;53.084;8.872;2024-02-16T02:42:03;10.20;99.90
32187;DHT22;18686;53.084;8.872;2024-02-16T02:44:31;10.30;99.90
32187;DHT22;18686;53.084;8.872;2024-02-16T02:47:00;10.20;99.90
32187;DHT22;18686;53.084;8.872;2024-02-16T02:49:28;10.30;99.90
32187;DHT22;18686;53.084;8.872;2024-02-16T02:51:57;10.20;99.90
32187;DHT22;18686;53.084;8.872;2024-02-16T02:54:25;10.30;99.90
32187;DHT22;18686;53.084;8.872;2024-02-16T02:56:55;10.30;99.90
32187;DHT22;18686;53.084;8.872;2024-02-16T02:59:24;10.30;99.90
32187;DHT22;18686;53.084;8.872;2024-02-16T03:01:52;10.30;99.90
32187;DHT22;18686;53.084;8.872;2024-02-16T03:04:21;10.40;99.90
32187;DHT22;18686;53.084;8.872;2024-02-16T03:06:51;10.40;99.90
32187;DHT22;18686;53.084;8.872;2024-02-16T03:09:22;10.40;99.90
32187;DHT22;18686;53.084;8.872;2024-02-16T03:11:50;10.40;99.90
32187;DHT22;18686;53.084;8.872;2024-02-16T03:14:21;10.40;99.90
32187;DHT22;18686;53.084;8.872;2024-02-16T03:16:49;10.40;99.90
32187;DHT22;18686;53.084;8.872;2024-02-16T03:19:17;10.40;99.90
32187;DHT22;18686;53.084;8.872;2024-02-16T03:21:47;10.40;99.90
32187;DHT22;18686;53.084;8.872;2024-02-16T03:24:16;10.40;99.90
32187;DHT22;18686;53.084;8.872;2024-02-16T03:26:44;10.40;99.90
32187;DHT22;18686;53.084;8.872;2024-02-16T03:29:12;10.40;99.90
32187;DHT22;18686;53.084;8.872;2024-02-16T03:31:42;10.50;99.90
32187;DHT22;18686;53.084;8.872;2024-02-16T03:34:10;10.50;99.90
32187;DHT22;18686;53.084;8.872;2024-02-16T03:36:38;10.40;99.90
32187;DHT22;18686;53.084;8.872;2024-02-16T03:39:07;10.40;99.90
32187;DHT22;18686;53.084;8.872;2024-02-16T03:41:36;10.50;99.90
32187;DHT22;18686;53.084;8.872;2024-02-16T03:44:04;10.40;99.90
32187;DHT22;18686;53.084;8.872;2024-02-16T03:46:33;10.50;99.90
32187;DHT22;18686;53.084;8.872;2024-02-16T03:49:03;10.50;99.90
32187;DHT22;18686;53.084;8.872;2024-02-16T03:51:31;10.50;99.90
32187;DHT22;18686;53.084;8.872;2024-02-16T03:53:59;10.50;99.90
32187;DHT22;18686;53.084;8.872;2024-02-16T03:56:29;10.50;99.90
32187;DHT22;18686;53.084;8.872;2024-02-16T03:58:57;10.50;99.90
32187;DHT22;18686;53.084;8.872;2024-02-16T04:01:26;10.50;99.90
32187;DHT22;18686;53.084;8.872;2024-02-16T04:03:54;10.50;99.90
32187;DHT22;18686;53.084;8.872;2024-02-16T04:06:24;10.40;99.90
32187;DHT22;18686;53.084;8.872;2024-02-16T04:08:52;10.40;99.90
32187;DHT22;18686;53.084;8.872;2024-02-16T04:11:21;10.40;99.90
32187;DHT22;18686;53.084;8.872;2024-02-16T04:13:50;10.40;99.90
32187;DHT22;18686;53.084;8.872;2024-02-16T04:16:18;10.40;99.90
32187;DHT22;18686;53.084;8.872;2024-02-16T04:18:49;10.40;99.90
32187;DHT22;18686;53.084;8.872;2024-02-16T04:21:18;10.40;99.90
32187;DHT22;18686;53.084;8.872;2024-02-16T04:23:49;10.40;99.90
32187;DHT22;18686;53.084;8.872;2024-02-16T04:26:17;10.50;99.90
32187;DHT22;18686;53.084;8.872;2024-02-16T04:28:46;10.50;99.90
32187;DHT22;18686;53.084;8.872;2024-02-16T04:31:14;10.50;99.90
32187;DHT22;18686;53.084;8.872;2024-02-16T04:33:42;10.50;99.90
32187;DHT22;18686;53.084;8.872;2024-02-16T04:36:11;10.50;99.90
32187;DHT22;18686;53.084;8.872;2024-02-16T04:38:58;10.50;99.90
32187;DHT22;18686;53.084;8.872;2024-02-16T04:41:27;10.50;99.90
32187;DHT22;18686;53.084;8.872;2024-02-16T04:43:55;10.50;99.90
32187;DHT22;18686;53.084;8.872;2024-02-16T04:46:23;10.50;99.90
32187;DHT22;18686;53.084;8.872;2024-02-16T04:48:52;10.50;99.90
32187;DHT22;18686;53.084;8.872;2024-02-16T04:51:21;10.50;99.90
32187;DHT22;18686;53.084;8.872;2024-02-16T04:53:50;10.50;99.90
32187;DHT22;18686;53.084;8.872;2024-02-16T04:56:19;10.50;99.90
32187;DHT22;18686;53.084;8.872;2024-02-16T04:58:49;10.50;99.90
32187;DHT22;18686;53.084;8.872;2024-02-16T05:01:19;10.40;99.90
32187;DHT22;18686;53.084;8.872;2024-02-16T05:03:47;10.50;99.90
32187;DHT22;18686;53.084;8.872;2024-02-16T05:06:16;10.40;99.90
32187;DHT22;18686;53.084;8.872;2024-02-16T05:08:45;10.40;99.90
32187;DHT22;18686;53.084;8.872;2024-02-16T05:11:13;10.40;99.90
32187;DHT22;18686;53.084;8.872;2024-02-16T05:13:43;10.40;99.90
32187;DHT22;18686;53.084;8.872;2024-02-16T05:16:12;10.40;99.90
32187;DHT22;18686;53.084;8.872;2024-02-16T05:18:40;10.40;99.90
32187;DHT22;18686;53.084;8.872;2024-02-16T05:21:08;10.40;99.90
32187;DHT22;18686;53.084;8.872;2024-02-16T05:23:37;10.40;99.90
32187;DHT22;18686;53.084;8.872;2024-02-16T05:26:06;10.40;99.90
32187;DHT22;18686;53.084;8.872;2024-02-16T05:28:34;10.40;99.90
32187;DHT22;18686;53.084;8.872;2024-02-16T05:31:14;10.40;99.90
32187;DHT22;18686;53.084;8.872;2024-02-16T05:33:45;10.50;99.90
32187;DHT22;18686;53.084;8.872;2024-02-16T05:36:16;10.40;99.90
32187;DHT22;18686;53.084;8.872;2024-02-16T05:38:45;10.50;99.90
32187;DHT22;18686;53.084;8.872;2024-02-16T05:41:13;10.40;99.90
32187;DHT22;18686;53.084;8.872;2024-02-16T05:43:43;10.40;99.90
32187;DHT22;18686;53.084;8.872;2024-02-16T05:46:14;10.40;99.90
32187;DHT22;18686;53.084;8.872;2024-02-16T05:48:43;10.40;99.90
32187;DHT22;18686;53.084;8.872;2024-02-16T05:51:13;10.40;99.90
32187;DHT22;18686;53.084;8.872;2024-02-16T05:53:41;10.40;99.90
32187;DHT22;18686;53.084;8.872;2024-02-16T05:56:10;10.30;99.90
32187;DHT22;18686;53.084;8.872;2024-02-16T05:58:38;10.30;99.90
32187;DHT22;18686;53.084;8.872;2024-02-16T06:01:07;10.20;99.90
32187;DHT22;18686;53.084;8.872;2024-02-16T06:03:41;10.20;99.90
32187;DHT22;18686;53.084;8.872;2024-02-16T06:06:09;10.20;99.90
32187;DHT22;18686;53.084;8.872;2024-02-16T06:08:37;10.10;99.90
32187;DHT22;18686;53.084;8.872;2024-02-16T06:11:07;10.10;99.90
32187;DHT22;18686;53.084;8.872;2024-02-16T06:13:35;10.10;99.90
32187;DHT22;18686;53.084;8.872;2024-02-16T06:16:05;10.10;99.90
32187;DHT22;18686;53.084;8.872;2024-02-16T06:18:35;10.10;99.90
32187;DHT22;18686;53.084;8.872;2024-02-16T06:21:05;10.10;99.90
32187;DHT22;18686;53.084;8.872;2024-02-16T06:23:33;10.10;99.90
32187;DHT22;18686;53.084;8.872;2024-02-16T06:26:02;10.10;99.90
32187;DHT22;18686;53.084;8.872;2024-02-16T06:28:32;10.20;99.90
32187;DHT22;18686;53.084;8.872;2024-02-16T06:31:00;10.20;99.90
32187;DHT22;18686;53.084;8.872;2024-02-16T06:33:28;10.30;99.90
32187;DHT22;18686;53.084;8.872;2024-02-16T06:35:57;10.30;99.90
32187;DHT22;18686;53.084;8.872;2024-02-16T06:38:27;10.40;99.90
32187;DHT22;18686;53.084;8.872;2024-02-16T06:40:55;10.40;99.90
32187;DHT22;18686;53.084;8.872;2024-02-16T06:43:23;10.50;99.90
32187;DHT22;18686;53.084;8.872;2024-02-16T06:45:52;10.50;99.90
32187;DHT22;18686;53.084;8.872;2024-02-16T06:48:22;10.60;99.90
32187;DHT22;18686;53.084;8.872;2024-02-16T06:50:50;10.60;99.90
32187;DHT22;18686;53.084;8.872;2024-02-16T06:53:19;10.60;99.90
32187;DHT22;18686;53.084;8.872;2024-02-16T06:55:48;10.70;99.90
32187;DHT22;18686;53.084;8.872;2024-02-16T06:58:18;10.70;99.90
32187;DHT22;18686;53.084;8.872;2024-02-16T07:00:47;10.70;99.90
32187;DHT22;18686;53.084;8.872;2024-02-16T07:03:15;10.80;99.90
32187;DHT22;18686;53.084;8.872;2024-02-16T07:05:44;10.80;99.90
32187;DHT22;18686;53.084;8.872;2024-02-16T07:08:12;10.80;99.90
32187;DHT22;18686;53.084;8.872;2024-02-16T07:10:40;10.70;99.90
32187;DHT22;18686;53.084;8.872;2024-02-16T07:13:10;10.80;99.90
32187;DHT22;18686;53.084;8.872;2024-02-16T07:15:38;10.70;99.90
32187;DHT22;18686;53.084;8.872;2024-02-16T07:18:07;10.70;99.90
32187;DHT22;18686;53.084;8.872;2024-02-16T07:20:36;10.70;99.90
32187;DHT22;18686;53.084;8.872;2024-02-16T07:23:05;10.80;99.90
32187;DHT22;18686;53.084;8.872;2024-02-16T07:25:33;10.80;99.90
32187;DHT22;18686;53.084;8.872;2024-02-16T07:28:02;10.70;99.90
32187;DHT22;18686;53.084;8.872;2024-02-16T07:30:33;10.80;99.90
32187;DHT22;18686;53.084;8.872;2024-02-16T07:33:09;10.80;99.90
32187;DHT22;18686;53.084;8.872;2024-02-16T07:35:38;10.80;99.90
32187;DHT22;18686;53.084;8.872;2024-02-16T07:38:06;10.80;99.90
32187;DHT22;18686;53.084;8.872;2024-02-16T07:40:34;10.80;99.90
32187;DHT22;18686;53.084;8.872;2024-02-16T07:43:03;10.90;99.90
32187;DHT22;18686;53.084;8.872;2024-02-16T07:45:33;10.90;99.90
32187;DHT22;18686;53.084;8.872;2024-02-16T07:48:02;11.00;99.90
32187;DHT22;18686;53.084;8.872;2024-02-16T07:50:33;11.00;99.90
32187;DHT22;18686;53.084;8.872;2024-02-16T07:53:01;11.10;99.90
32187;DHT22;18686;53.084;8.872;2024-02-16T07:55:29;11.20;99.90
32187;DHT22;18686;53.084;8.872;2024-02-16T07:57:58;11.30;99.90
32187;DHT22;18686;53.084;8.872;2024-02-16T08:00:26;11.40;99.90
32187;DHT22;18686;53.084;8.872;2024-02-16T08:02:57;11.40;99.90
32187;DHT22;18686;53.084;8.872;2024-02-16T08:05:25;11.50;99.90
32187;DHT22;18686;53.084;8.872;2024-02-16T08:07:54;11.60;99.90
32187;DHT22;18686;53.084;8.872;2024-02-16T08:10:23;11.60;99.90
32187;DHT22;18686;53.084;8.872;2024-02-16T08:12:52;11.70;99.90
32187;DHT22;18686;53.084;8.872;2024-02-16T08:15:20;11.70;99.90
32187;DHT22;18686;53.084;8.872;2024-02-16T08:17:52;11.80;99.90
32187;DHT22;18686;53.084;8.872;2024-02-16T08:20:22;11.80;99.90
32187;DHT22;18686;53.084;8.872;2024-02-16T08:22:51;11.90;99.90
32187;DHT22;18686;53.084;8.872;2024-02-16T08:25:19;12.00;99.90
32187;DHT22;18686;53.084;8.872;2024-02-16T08:27:48;12.10;99.90
32187;DHT22;18686;53.084;8.872;2024-02-16T08:30:17;12.10;99.90
32187;DHT22;18686;53.084;8.872;2024-02-16T08:32:45;12.20;99.90
32187;DHT22;18686;53.084;8.872;2024-02-16T08:35:14;12.30;99.90
32187;DHT22;18686;53.084;8.872;2024-02-16T08:37:45;12.30;99.90
32187;DHT22;18686;53.084;8.872;2024-02-16T08:40:14;12.30;99.90
32187;DHT22;18686;53.084;8.872;2024-02-16T08:42:42;12.40;99.90
32187;DHT22;18686;53.084;8.872;2024-02-16T08:45:11;12.40;99.90
32187;DHT22;18686;53.084;8.872;2024-02-16T08:47:40;12.40;99.90
32187;DHT22;18686;53.084;8.872;2024-02-16T08:50:09;12.50;99.90
32187;DHT22;18686;53.084;8.872;2024-02-16T08:52:38;12.60;99.90
32187;DHT22;18686;53.084;8.872;2024-02-16T08:55:08;12.60;99.90
32187;DHT22;18686;53.084;8.872;2024-02-16T08:57:37;12.70;99.90
32187;DHT22;18686;53.084;8.872;2024-02-16T09:00:06;12.90;99.90
32187;DHT22;18686;53.084;8.872;2024-02-16T09:02:35;13.00;99.90
32187;DHT22;18686;53.084;8.872;2024-02-16T09:05:04;13.20;99.90
32187;DHT22;18686;53.084;8.872;2024-02-16T09:07:33;13.40;99.90
32187;DHT22;18686;53.084;8.872;2024-02-16T09:10:01;13.50;99.90
32187;DHT22;18686;53.084;8.872;2024-02-16T09:12:32;13.70;99.90
32187;DHT22;18686;53.084;8.872;2024-02-16T09:15:01;13.80;99.90
32187;DHT22;18686;53.084;8.872;2024-02-16T09:17:31;13.90;99.90
32187;DHT22;18686;53.084;8.872;2024-02-16T09:19:59;14.00;99.90
32187;DHT22;18686;53.084;8.872;2024-02-16T09:22:28;14.00;99.90
32187;DHT22;18686;53.084;8.872;2024-02-16T09:24:59;14.00;99.90
32187;DHT22;18686;53.084;8.872;2024-02-16T09:27:29;14.10;99.90
32187;DHT22;18686;53.084;8.872;2024-02-16T09:29:58;14.10;99.90
32187;DHT22;18686;53.084;8.872;2024-02-16T09:32:27;14.20;99.90
32187;DHT22;18686;53.084;8.872;2024-02-16T09:34:55;14.20;99.90
32187;DHT22;18686;53.084;8.872;2024-02-16T09:37:23;14.30;99.90
32187;DHT22;18686;53.084;8.872;2024-02-16T09:39:52;14.40;99.90
32187;DHT22;18686;53.084;8.872;2024-02-16T09:42:23;14.50;99.90
32187;DHT22;18686;53.084;8.872;2024-02-16T09:44:54;14.60;99.90
32187;DHT22;18686;53.084;8.872;2024-02-16T09:47:24;14.60;99.90
32187;DHT22;18686;53.084;8.872;2024-02-16T09:49:56;14.70;99.90
32187;DHT22;18686;53.084;8.872;2024-02-16T09:52:25;14.70;99.90
32187;DHT22;18686;53.084;8.872;2024-02-16T09:54:53;14.70;99.90
32187;DHT22;18686;53.084;8.872;2024-02-16T09:57:22;14.60;99.90
32187;DHT22;18686;53.084;8.872;2024-02-16T09:59:50;14.50;99.90
32187;DHT22;18686;53.084;8.872;2024-02-16T10:02:19;14.40;99.90
32187;DHT22;18686;53.084;8.872;2024-02-16T10:04:48;14.40;99.90
32187;DHT22;18686;53.084;8.872;2024-02-16T10:07:17;14.40;99.90
32187;DHT22;18686;53.084;8.872;2024-02-16T10:09:45;14.50;99.90
32187;DHT22;18686;53.084;8.872;2024-02-16T10:12:18;14.50;99.90
32187;DHT22;18686;53.084;8.872;2024-02-16T10:14:54;14.50;99.90
32187;DHT22;18686;53.084;8.872;2024-02-16T10:17:23;14.40;99.90
32187;DHT22;18686;53.084;8.872;2024-02-16T10:19:57;14.40;99.90
32187;DHT22;18686;53.084;8.872;2024-02-16T10:22:26;14.40;99.90
32187;DHT22;18686;53.084;8.872;2024-02-16T10:24:55;14.50;99.90
32187;DHT22;18686;53.084;8.872;2024-02-16T10:27:23;14.50;99.90
32187;DHT22;18686;53.084;8.872;2024-02-16T10:29:54;14.50;99.90
32187;DHT22;18686;53.084;8.872;2024-02-16T10:32:24;14.50;99.90
32187;DHT22;18686;53.084;8.872;2024-02-16T10:34:54;14.60;99.90
32187;DHT22;18686;53.084;8.872;2024-02-16T10:37:25;14.60;99.90
32187;DHT22;18686;53.084;8.872;2024-02-16T10:39:54;14.70;99.90
32187;DHT22;18686;53.084;8.872;2024-02-16T10:42:26;14.70;99.90
32187;DHT22;18686;53.084;8.872;2024-02-16T10:44:55;14.80;99.90
32187;DHT22;18686;53.084;8.872;2024-02-16T10:47:24;14.90;99.90
32187;DHT22;18686;53.084;8.872;2024-02-16T10:49:52;15.00;99.90
32187;DHT22;18686;53.084;8.872;2024-02-16T10:52:21;15.10;99.90
32187;DHT22;18686;53.084;8.872;2024-02-16T10:54:51;15.20;99.90
32187;DHT22;18686;53.084;8.872;2024-02-16T10:57:20;15.30;99.90
32187;DHT22;18686;53.084;8.872;2024-02-16T10:59:49;15.50;99.90
32187;DHT22;18686;53.084;8.872;2024-02-16T11:02:21;15.60;99.90
32187;DHT22;18686;53.084;8.872;2024-02-16T11:04:52;15.60;99.90
32187;DHT22;18686;53.084;8.872;2024-02-16T11:07:21;15.80;99.90
32187;DHT22;18686;53.084;8.872;2024-02-16T11:09:51;15.90;99.90
32187;DHT22;18686;53.084;8.872;2024-02-16T11:12:21;16.00;99.90
32187;DHT22;18686;53.084;8.872;2024-02-16T11:14:49;16.20;99.90
32187;DHT22;18686;53.084;8.872;2024-02-16T11:17:23;16.40;99.90
32187;DHT22;18686;53.084;8.872;2024-02-16T11:19:54;16.60;99.90
32187;DHT22;18686;53.084;8.872;2024-02-16T11:22:26;16.80;99.90
32187;DHT22;18686;53.084;8.872;2024-02-16T11:24:58;17.00;99.90
32187;DHT22;18686;53.084;8.872;2024-02-16T11:27:31;17.40;99.90
32187;DHT22;18686;53.084;8.872;2024-02-16T11:30:02;17.50;99.90
32187;DHT22;18686;53.084;8.872;2024-02-16T11:32:32;17.50;99.90
32187;DHT22;18686;53.084;8.872;2024-02-16T11:35:05;17.50;99.90
32187;DHT22;18686;53.084;8.872;2024-02-16T11:37:35;17.30;99.90
32187;DHT22;18686;53.084;8.872;2024-02-16T11:40:06;17.20;99.90
32187;DHT22;18686;53.084;8.872;2024-02-16T11:42:36;17.00;99.90
32187;DHT22;18686;53.084;8.872;2024-02-16T11:45:05;16.80;99.90
32187;DHT22;18686;53.084;8.872;2024-02-16T11:47:34;16.60;99.90
32187;DHT22;18686;53.084;8.872;2024-02-16T11:50:03;16.40;99.90
32187;DHT22;18686;53.084;8.872;2024-02-16T11:52:32;16.30;99.90
32187;DHT22;18686;53.084;8.872;2024-02-16T11:55:01;16.20;99.90
32187;DHT22;18686;53.084;8.872;2024-02-16T11:57:33;15.80;99.90
32187;DHT22;18686;53.084;8.872;2024-02-16T12:00:03;15.40;99.90
32187;DHT22;18686;53.084;8.872;2024-02-16T12:02:35;15.10;99.90
32187;DHT22;18686;53.084;8.872;2024-02-16T12:05:05;14.80;99.90
32187;DHT22;18686;53.084;8.872;2024-02-16T12:07:37;14.50;99.90
32187;DHT22;18686;53.084;8.872;2024-02-16T12:10:08;14.40;99.90
32187;DHT22;18686;53.084;8.872;2024-02-16T12:12:39;14.30;99.90
32187;DHT22;18686;53.084;8.872;2024-02-16T12:15:10;14.20;99.90
32187;DHT22;18686;53.084;8.872;2024-02-16T12:17:41;14.20;99.90
32187;DHT22;18686;53.084;8.872;2024-02-16T12:20:13;14.10;99.90
32187;DHT22;18686;53.084;8.872;2024-02-16T12:22:42;14.10;99.90
32187;DHT22;18686;53.084;8.872;2024-02-16T12:25:11;14.20;99.90
32187;DHT22;18686;53.084;8.872;2024-02-16T12:27:41;14.30;99.90
32187;DHT22;18686;53.084;8.872;2024-02-16T12:30:11;14.20;99.90
32187;DHT22;18686;53.084;8.872;2024-02-16T12:32:39;14.30;99.90
32187;DHT22;18686;53.084;8.872;2024-02-16T12:35:08;14.30;99.90
32187;DHT22;18686;53.084;8.872;2024-02-16T12:37:37;14.30;99.90
32187;DHT22;18686;53.084;8.872;2024-02-16T12:40:07;14.30;99.90
32187;DHT22;18686;53.084;8.872;2024-02-16T12:42:35;14.30;99.90
32187;DHT22;18686;53.084;8.872;2024-02-16T12:45:06;14.30;99.90
32187;DHT22;18686;53.084;8.872;2024-02-16T12:47:35;14.30;99.90
32187;DHT22;18686;53.084;8.872;2024-02-16T12:50:04;14.20;99.90
32187;DHT22;18686;53.084;8.872;2024-02-16T12:52:33;14.20;99.90
32187;DHT22;18686;53.084;8.872;2024-02-16T12:55:17;14.20;99.90
32187;DHT22;18686;53.084;8.872;2024-02-16T12:57:45;14.20;99.90
32187;DHT22;18686;53.084;8.872;2024-02-16T13:00:16;14.30;99.90
32187;DHT22;18686;53.084;8.872;2024-02-16T13:02:43;14.40;99.90
32187;DHT22;18686;53.084;8.872;2024-02-16T13:05:12;14.60;99.90
32187;DHT22;18686;53.084;8.872;2024-02-16T13:07:41;14.70;99.90
32187;DHT22;18686;53.084;8.872;2024-02-16T13:10:09;14.80;99.90
32187;DHT22;18686;53.084;8.872;2024-02-16T13:12:38;15.00;99.90
32187;DHT22;18686;53.084;8.872;2024-02-16T13:15:07;15.10;99.90
32187;DHT22;18686;53.084;8.872;2024-02-16T13:17:54;15.20;99.90
32187;DHT22;18686;53.084;8.872;2024-02-16T13:20:23;15.30;99.90
32187;DHT22;18686;53.084;8.872;2024-02-16T13:22:52;15.30;99.90
32187;DHT22;18686;53.084;8.872;2024-02-16T13:25:20;15.30;99.90
32187;DHT22;18686;53.084;8.872;2024-02-16T13:27:49;15.40;99.90
32187;DHT22;18686;53.084;8.872;2024-02-16T13:30:17;15.40;99.90
32187;DHT22;18686;53.084;8.872;2024-02-16T13:32:46;15.20;99.90
32187;DHT22;18686;53.084;8.872;2024-02-16T13:35:15;15.10;99.90
32187;DHT22;18686;53.084;8.872;2024-02-16T13:37:47;14.90;99.90
32187;DHT22;18686;53.084;8.872;2024-02-16T13:40:16;14.80;99.90
32187;DHT22;18686;53.084;8.872;2024-02-16T13:43:07;14.60;99.90
32187;DHT22;18686;53.084;8.872;2024-02-16T13:45:48;14.50;99.90
32187;DHT22;18686;53.084;8.872;2024-02-16T13:48:18;14.40;99.90
32187;DHT22;18686;53.084;8.872;2024-02-16T13:50:49;14.30;99.90
32187;DHT22;18686;53.084;8.872;2024-02-16T13:53:18;14.20;99.90
32187;DHT22;18686;53.084;8.872;2024-02-16T13:55:49;14.20;99.90
32187;DHT22;18686;53.084;8.872;2024-02-16T13:58:18;14.10;99.90
32187;DHT22;18686;53.084;8.872;2024-02-16T14:00:46;14.00;99.90
32187;DHT22;18686;53.084;8.872;2024-02-16T14:03:16;13.90;99.90
32187;DHT22;18686;53.084;8.872;2024-02-16T14:05:45;13.80;99.90
32187;DHT22;18686;53.084;8.872;2024-02-16T14:08:17;13.80;99.90
32187;DHT22;18686;53.084;8.872;2024-02-16T14:10:45;13.80;99.90
32187;DHT22;18686;53.084;8.872;2024-02-16T14:13:13;13.80;99.90
32187;DHT22;18686;53.084;8.872;2024-02-16T14:15:43;13.70;99.90
32187;DHT22;18686;53.084;8.872;2024-02-16T14:18:11;13.70;99.90
32187;DHT22;18686;53.084;8.872;2024-02-16T14:20:53;13.70;99.90
32187;DHT22;18686;53.084;8.872;2024-02-16T14:23:22;13.60;99.90
32187;DHT22;18686;53.084;8.872;2024-02-16T14:25:51;13.60;99.90
32187;DHT22;18686;53.084;8.872;2024-02-16T14:28:19;13.60;99.90
32187;DHT22;18686;53.084;8.872;2024-02-16T14:30:48;13.60;99.90
32187;DHT22;18686;53.084;8.872;2024-02-16T14:33:16;13.50;99.90
32187;DHT22;18686;53.084;8.872;2024-02-16T14:35:58;13.40;99.90
32187;DHT22;18686;53.084;8.872;2024-02-16T14:38:29;13.40;99.90
32187;DHT22;18686;53.084;8.872;2024-02-16T14:40:57;13.40;99.90
32187;DHT22;18686;53.084;8.872;2024-02-16T14:43:31;13.40;99.90
32187;DHT22;18686;53.084;8.872;2024-02-16T14:45:59;13.40;99.90
32187;DHT22;18686;53.084;8.872;2024-02-16T14:48:29;13.40;99.90
32187;DHT22;18686;53.084;8.872;2024-02-16T14:50:58;13.40;99.90
32187;DHT22;18686;53.084;8.872;2024-02-16T14:53:26;13.40;99.90
32187;DHT22;18686;53.084;8.872;2024-02-16T14:55:59;13.40;99.90
32187;DHT22;18686;53.084;8.872;2024-02-16T14:58:27;13.40;99.90
32187;DHT22;18686;53.084;8.872;2024-02-16T15:00:56;13.40;99.90
32187;DHT22;18686;53.084;8.872;2024-02-16T15:03:25;13.40;99.90
32187;DHT22;18686;53.084;8.872;2024-02-16T15:05:57;13.40;99.90
32187;DHT22;18686;53.084;8.872;2024-02-16T15:08:25;13.40;99.90
32187;DHT22;18686;53.084;8.872;2024-02-16T15:10:54;13.40;99.90
32187;DHT22;18686;53.084;8.872;2024-02-16T15:13:24;13.50;99.90
32187;DHT22;18686;53.084;8.872;2024-02-16T15:15:54;13.50;99.90
32187;DHT22;18686;53.084;8.872;2024-02-16T15:18:23;13.50;99.90
32187;DHT22;18686;53.084;8.872;2024-02-16T15:20:51;13.50;99.90
32187;DHT22;18686;53.084;8.872;2024-02-16T15:23:22;13.50;99.90
32187;DHT22;18686;53.084;8.872;2024-02-16T15:25:50;13.40;99.90
32187;DHT22;18686;53.084;8.872;2024-02-16T15:28:19;13.40;99.90
32187;DHT22;18686;53.084;8.872;2024-02-16T15:30:49;13.40;99.90
32187;DHT22;18686;53.084;8.872;2024-02-16T15:33:18;13.30;99.90
32187;DHT22;18686;53.084;8.872;2024-02-16T15:35:47;13.30;99.90
32187;DHT22;18686;53.084;8.872;2024-02-16T15:38:15;13.20;99.90
32187;DHT22;18686;53.084;8.872;2024-02-16T15:40:44;13.20;99.90
32187;DHT22;18686;53.084;8.872;2024-02-16T15:43:12;13.30;99.90